Time;durP1;ratioP1;P1;durP2;ratioP2;P2;SDS_P1;SDS_P2;PMS_P1;PMS_P2;Temp;Humidity;BMP_temperature;BMP_pressure;BME280_temperature;BME280_humidity;BME280_pressure;Samples;Min_cycle;Max_cycle;Signal;HPM_P1;HPM_P2
2023/06/15 00:00:10;;;;;;;317.17;171.85;;;;;;;22.39;83.63;99328.78;344781;28;986;-78
2023/06/15 00:00:20;;;;;;;321.10;173.60;;;;;;;22.42;83.97;99325.84;345631;28;2488;-77
2023/06/15 00:00:31;;;;;;;322.30;172.93;;;;;;;22.40;83.77;99319.81;346073;28;1264;-77
2023/06/15 00:00:42;;;;;;;322.55;175.68;;;;;;;22.41;83.56;99321.50;345372;28;1288;-77
2023/06/15 00:00:52;;;;;;;322.33;176.83;;;;;;;22.42;83.77;99328.50;343173;28;1249;-77
2023/06/15 00:01:02;;;;;;;322.20;178.90;;;;;;;22.39;83.38;99328.78;344314;28;986;-77
2023/06/15 00:01:13;;;;;;;322.55;177.55;;;;;;;22.36;83.82;99323.75;343842;28;847;-77
2023/06/15 00:01:24;;;;;;;321.40;177.90;;;;;;;22.31;83.80;99329.50;344543;28;1325;-77
2023/06/15 00:01:35;;;;;;;323.30;180.87;;;;;;;22.31;84.04;99323.34;344838;28;1226;-77
2023/06/15 00:01:45;;;;;;;324.97;181.37;;;;;;;22.30;83.66;99321.66;344527;28;1244;-77
2023/06/15 00:01:56;;;;;;;325.30;181.53;;;;;;;22.28;83.43;99326.28;342547;28;1125;-77
2023/06/15 00:02:06;;;;;;;325.08;183.18;;;;;;;22.20;83.92;99325.19;345926;28;1357;-77
2023/06/15 00:02:17;;;;;;;324.50;182.27;;;;;;;22.17;83.95;99322.78;346085;28;1122;-77
2023/06/15 00:02:27;;;;;;;323.00;179.48;;;;;;;22.16;84.58;99323.78;345973;28;1365;-77
2023/06/15 00:02:39;;;;;;;323.03;177.53;;;;;;;22.15;84.55;99322.09;345940;28;1210;-77
2023/06/15 00:02:49;;;;;;;321.73;173.60;;;;;;;22.17;84.33;99325.47;347163;28;855;-77
2023/06/15 00:03:00;;;;;;;324.05;172.68;;;;;;;22.21;84.22;99320.69;346520;28;1326;-77
2023/06/15 00:03:10;;;;;;;322.90;171.37;;;;;;;22.20;84.66;99325.19;348457;28;1161;-77
2023/06/15 00:03:21;;;;;;;326.48;173.75;;;;;;;22.23;84.18;99322.22;344754;28;856;-77
2023/06/15 00:03:31;;;;;;;326.20;172.77;;;;;;;22.24;84.53;99326.56;343186;28;1332;-77
2023/06/15 00:03:42;;;;;;;322.00;169.30;;;;;;;22.24;84.10;99331.91;343656;28;1475;-77
2023/06/15 00:03:52;;;;;;;315.75;166.55;;;;;;;22.20;84.09;99325.19;342094;28;980;-77
2023/06/15 00:04:03;;;;;;;317.10;169.70;;;;;;;22.17;84.51;99330.78;343527;28;1197;-77
2023/06/15 00:04:14;;;;;;;318.30;169.95;;;;;;;22.12;85.02;99324.22;343889;28;794;-77
2023/06/15 00:04:24;;;;;;;319.23;170.30;;;;;;;22.14;84.59;99331.06;343379;28;1405;-77
2023/06/15 00:04:35;;;;;;;316.92;168.57;;;;;;;22.14;84.93;99330.25;345912;28;1249;-77
2023/06/15 00:04:45;;;;;;;318.20;169.43;;;;;;;22.11;84.45;99325.19;347291;28;1711;-77
2023/06/15 00:04:55;;;;;;;317.15;167.13;;;;;;;22.03;84.96;99328.59;345542;28;1389;-77
2023/06/15 00:05:07;;;;;;;320.37;168.50;;;;;;;21.96;85.37;99332.78;342068;28;1409;-77
2023/06/15 00:05:18;;;;;;;319.77;166.63;;;;;;;21.92;85.54;99334.03;344133;28;1436;-77
2023/06/15 00:05:28;;;;;;;323.67;170.27;;;;;;;21.86;85.83;99332.78;341747;28;1309;-77
2023/06/15 00:05:38;;;;;;;325.58;169.43;;;;;;;21.84;86.10;99326.75;342639;28;1153;-77
2023/06/15 00:05:49;;;;;;;325.80;171.10;;;;;;;21.84;86.09;99328.56;341430;28;1532;-77
2023/06/15 00:06:00;;;;;;;321.25;167.13;;;;;;;21.81;85.91;99332.34;342261;28;2376;-77
2023/06/15 00:06:10;;;;;;;321.02;169.60;;;;;;;21.84;85.95;99328.56;339339;29;1245;-77
2023/06/15 00:06:21;;;;;;;325.53;173.70;;;;;;;21.86;86.08;99331.94;340626;29;800;-77
2023/06/15 00:06:32;;;;;;;326.55;173.50;;;;;;;21.85;85.92;99322.25;341248;28;1799;-77
2023/06/15 00:06:43;;;;;;;328.05;173.90;;;;;;;21.91;86.02;99335.03;339537;28;1406;-77
2023/06/15 00:06:54;;;;;;;323.50;169.93;;;;;;;21.94;85.91;99332.06;341750;28;1373;-77
2023/06/15 00:07:04;;;;;;;322.88;170.77;;;;;;;21.98;85.51;99336.13;340133;29;1451;-77
2023/06/15 00:07:15;;;;;;;318.93;169.73;;;;;;;21.99;85.73;99332.50;336914;29;1697;-77
2023/06/15 00:07:25;;;;;;;319.48;167.48;;;;;;;21.99;85.45;99335.16;333146;29;1775;-77
2023/06/15 00:07:36;;;;;;;319.83;168.70;;;;;;;22.00;85.55;99330.66;334175;29;870;-77
2023/06/15 00:07:46;;;;;;;321.60;170.20;;;;;;;22.03;85.47;99331.25;333215;29;1869;-77
2023/06/15 00:07:56;;;;;;;323.67;174.50;;;;;;;22.07;85.58;99327.34;334482;29;2138;-77
2023/06/15 00:08:07;;;;;;;326.93;173.27;;;;;;;22.09;85.38;99338.69;332398;29;1443;-77
2023/06/15 00:08:17;;;;;;;327.55;171.05;;;;;;;22.10;85.12;99332.34;334976;29;1670;-77
2023/06/15 00:08:28;;;;;;;325.43;172.57;;;;;;;22.11;85.13;99328.69;338760;29;1191;-77
2023/06/15 00:08:38;;;;;;;322.73;171.52;;;;;;;22.11;85.04;99328.69;333331;29;1109;-77
2023/06/15 00:08:48;;;;;;;320.40;170.97;;;;;;;22.09;85.11;99329.84;332169;29;1196;-77
2023/06/15 00:08:59;;;;;;;320.73;168.43;;;;;;;22.04;85.08;99330.28;332856;29;1638;-77
2023/06/15 00:09:09;;;;;;;323.88;171.77;;;;;;;21.95;85.44;99332.91;331231;29;1279;-77
2023/06/15 00:09:20;;;;;;;326.77;175.10;;;;;;;21.87;85.76;99330.97;334860;29;2057;-77
2023/06/15 00:09:30;;;;;;;326.50;175.13;;;;;;;21.88;85.75;99329.97;335549;29;2252;-77
2023/06/15 00:09:41;;;;;;;326.10;174.93;;;;;;;21.86;86.03;99326.63;334278;29;2362;-77
2023/06/15 00:09:51;;;;;;;324.08;176.18;;;;;;;21.82;86.23;99333.19;332525;29;1518;-77
2023/06/15 00:10:02;;;;;;;323.57;173.70;;;;;;;21.84;86.30;99325.91;329745;29;2589;-78
2023/06/15 00:10:12;;;;;;;321.40;170.20;;;;;;;21.89;85.90;99337.00;326598;30;2712;-77
2023/06/15 00:10:22;;;;;;;321.20;167.20;;;;;;;21.87;86.35;99333.63;324231;30;1242;-77
2023/06/15 00:10:33;;;;;;;324.30;168.93;;;;;;;21.90;86.18;99328.00;324943;30;1848;-77
2023/06/15 00:10:43;;;;;;;327.77;172.15;;;;;;;21.93;85.75;99333.06;326921;30;1330;-77
2023/06/15 00:10:54;;;;;;;328.60;172.13;;;;;;;21.95;85.75;99331.09;325329;30;1341;-77
2023/06/15 00:11:04;;;;;;;326.05;171.50;;;;;;;21.96;85.83;99327.44;324940;30;1769;-77
2023/06/15 00:11:14;;;;;;;325.30;170.63;;;;;;;21.99;86.01;99335.16;325697;29;2613;-77
2023/06/15 00:11:25;;;;;;;325.08;170.20;;;;;;;22.00;85.71;99331.50;325709;30;1051;-77
2023/06/15 00:11:36;;;;;;;323.00;169.30;;;;;;;22.02;85.64;99332.25;316006;31;1198;-77
2023/06/15 00:11:46;;;;;;;324.77;170.02;;;;;;;22.04;85.68;99330.28;318202;30;3004;-77
2023/06/15 00:11:56;;;;;;;327.67;172.40;;;;;;;22.06;85.29;99333.66;314589;31;3157;-77
2023/06/15 00:12:09;;;;;;;328.98;176.93;;;;;;;22.09;85.49;99335.19;315104;31;936;-77
2023/06/15 00:12:19;;;;;;;325.85;179.32;;;;;;;22.10;85.03;99329.69;315371;31;3069;-77
2023/06/15 00:12:30;;;;;;;322.48;177.70;;;;;;;22.12;84.82;99333.03;316671;31;2999;-77
2023/06/15 00:12:41;;;;;;;321.48;176.95;;;;;;;22.14;84.90;99340.91;313655;31;2368;-77
2023/06/15 00:12:51;;;;;;;320.43;174.27;;;;;;;22.17;85.16;99333.47;315070;31;821;-77
2023/06/15 00:13:02;;;;;;;321.73;173.82;;;;;;;22.18;85.21;99332.47;315658;31;2105;-77
2023/06/15 00:13:12;;;;;;;322.20;176.57;;;;;;;22.19;85.32;99333.31;314807;30;2701;-77
2023/06/15 00:13:23;;;;;;;322.92;178.65;;;;;;;22.17;84.97;99329.94;311599;31;1263;-77
2023/06/15 00:13:33;;;;;;;323.43;177.27;;;;;;;22.17;84.99;99330.78;314194;31;3477;-77
2023/06/15 00:13:44;;;;;;;324.93;174.93;;;;;;;22.18;84.60;99327.16;311976;31;3484;-77
2023/06/15 00:13:54;;;;;;;326.80;175.77;;;;;;;22.18;84.63;99326.31;309495;31;1247;-77
2023/06/15 00:14:05;;;;;;;326.98;178.65;;;;;;;22.19;84.97;99333.31;309633;31;4128;-77
2023/06/15 00:14:16;;;;;;;328.85;179.70;;;;;;;22.16;84.61;99333.59;309740;31;4131;-77
2023/06/15 00:14:26;;;;;;;328.77;181.67;;;;;;;22.10;85.07;99335.00;308978;31;3699;-77
2023/06/15 00:14:37;;;;;;;326.25;177.77;;;;;;;22.03;84.93;99336.59;309323;31;1086;-77
2023/06/15 00:14:47;;;;;;;325.23;176.27;;;;;;;21.94;85.23;99334.75;306391;31;3814;-77
2023/06/15 00:14:57;;;;;;;324.03;174.93;;;;;;;21.97;85.76;99334.47;305690;32;3173;-77
2023/06/15 00:15:08;;;;;;;324.48;176.98;;;;;;;21.99;85.57;99332.50;305292;32;883;-77
2023/06/15 00:15:18;;;;;;;323.17;177.02;;;;;;;22.02;85.54;99340.25;306386;32;3723;-77
2023/06/15 00:15:30;;;;;;;322.80;175.93;;;;;;;22.02;85.33;99334.91;302458;32;4423;-77
2023/06/15 00:15:41;;;;;;;324.75;175.32;;;;;;;22.05;85.35;99337.28;297604;33;5434;-77
2023/06/15 00:15:51;;;;;;;325.67;174.37;;;;;;;22.08;85.06;99330.84;293954;33;1228;-77
2023/06/15 00:16:01;;;;;;;323.48;173.10;;;;;;;22.10;84.82;99335.00;295827;33;5415;-77
2023/06/15 00:16:14;;;;;;;321.03;174.00;;;;;;;22.10;84.76;99335.00;295942;32;6053;-77
2023/06/15 00:16:31;;;;;;;319.02;174.68;;;;;;;22.11;84.97;99335.84;295560;33;1197;-77
2023/06/15 00:16:42;;;;;;;320.30;174.00;;;;;;;22.14;84.92;99331.06;289515;33;5513;-77
2023/06/15 00:16:52;;;;;;;320.67;175.97;;;;;;;22.12;84.81;99338.38;291869;33;1377;-77
2023/06/15 00:17:03;;;;;;;321.67;177.07;;;;;;;22.14;84.80;99333.75;285456;34;5560;-78
2023/06/15 00:17:14;;;;;;;322.23;176.10;;;;;;;22.12;84.66;99343.72;285509;33;4413;-78
2023/06/15 00:17:25;;;;;;;321.27;173.52;;;;;;;22.12;84.95;99334.88;290023;34;1537;-78
2023/06/15 00:17:37;;;;;;;324.73;173.38;;;;;;;22.14;84.46;99340.91;290290;33;5391;-78
2023/06/15 00:17:48;;;;;;;324.63;174.88;;;;;;;22.13;84.81;99331.22;285870;34;6269;-77
2023/06/15 00:17:58;;;;;;;325.17;174.37;;;;;;;22.14;84.97;99344.41;285083;33;6943;-77
2023/06/15 00:18:08;;;;;;;323.20;174.18;;;;;;;22.14;84.72;99341.75;288181;34;1069;-77
2023/06/15 00:18:19;;;;;;;324.63;176.03;;;;;;;22.14;84.99;99340.91;284586;34;8787;-77
2023/06/15 00:18:32;;;;;;;320.95;174.48;;;;;;;22.09;85.06;99344.03;285901;33;10086;-77
2023/06/15 00:18:43;;;;;;;318.40;171.52;;;;;;;22.05;84.96;99337.28;286134;34;9981;-77
2023/06/15 00:18:54;;;;;;;316.60;171.60;;;;;;;22.03;85.20;99331.25;290147;34;954;-77
2023/06/15 00:20:47;;;;;;;307.38;154.35;;;;;;;21.92;86.08;99332.22;2475392;27;20496;-76
2023/06/15 00:21:00;;;;;;;317.50;165.67;;;;;;;21.90;85.78;99334.19;349757;28;1148;-76
2023/06/15 00:21:13;;;;;;;321.60;171.15;;;;;;;21.87;86.04;99333.63;347164;28;1231;-76
2023/06/15 00:21:24;;;;;;;323.73;170.82;;;;;;;21.86;86.15;99331.94;344621;28;1512;-76
2023/06/15 00:21:40;;;;;;;322.05;169.25;;;;;;;21.88;86.32;99330.81;346052;28;1295;-76
2023/06/15 00:21:53;;;;;;;322.25;169.00;;;;;;;21.89;85.83;99326.31;344528;28;1237;-77
2023/06/15 00:22:04;;;;;;;321.42;170.55;;;;;;;21.86;86.03;99335.44;345962;28;1418;-77
2023/06/15 00:22:14;;;;;;;319.38;170.23;;;;;;;21.82;85.90;99320.72;345997;28;809;-77
2023/06/15 00:22:26;;;;;;;320.97;170.53;;;;;;;21.86;85.88;99329.28;344985;28;1319;-77
2023/06/15 00:22:38;;;;;;;321.17;170.70;;;;;;;21.88;85.88;99329.97;345984;28;1007;-77
2023/06/15 00:22:49;;;;;;;323.20;172.25;;;;;;;21.90;86.17;99328.00;345887;28;869;-77
2023/06/15 00:22:59;;;;;;;322.60;171.02;;;;;;;21.93;85.76;99327.72;343301;28;1314;-77
2023/06/15 00:23:10;;;;;;;319.90;171.07;;;;;;;21.96;85.70;99331.94;347055;28;1334;-77
2023/06/15 00:23:26;;;;;;;318.80;169.80;;;;;;;21.98;85.95;99329.97;346150;28;1086;-77
2023/06/15 00:23:36;;;;;;;321.42;171.75;;;;;;;22.02;85.39;99329.59;343446;28;879;-77
2023/06/15 00:23:47;;;;;;;320.57;172.13;;;;;;;22.03;85.66;99328.59;344809;28;882;-77
2023/06/15 00:23:57;;;;;;;320.00;171.18;;;;;;;22.04;85.14;99324.94;344780;28;891;-77
2023/06/15 00:24:09;;;;;;;319.37;171.87;;;;;;;22.04;85.42;99327.63;343325;28;1358;-77
2023/06/15 00:24:19;;;;;;;316.05;169.45;;;;;;;22.01;85.30;99329.69;345756;28;1769;-77
2023/06/15 00:24:30;;;;;;;318.07;169.67;;;;;;;21.98;85.55;99324.63;345586;28;1318;-77
2023/06/15 00:24:41;;;;;;;322.02;170.77;;;;;;;22.00;85.33;99326.19;343027;28;1207;-77
2023/06/15 00:24:55;;;;;;;323.25;174.98;;;;;;;22.00;85.70;99328.84;343024;28;1319;-77
2023/06/15 00:25:06;;;;;;;319.40;169.55;;;;;;;22.00;85.88;99322.69;346740;28;1288;-77
2023/06/15 00:25:17;;;;;;;315.63;164.27;;;;;;;21.98;85.94;99327.31;344793;28;816;-77
2023/06/15 00:25:27;;;;;;;315.40;165.77;;;;;;;22.00;85.44;99325.34;344684;28;1253;-77
2023/06/15 00:25:38;;;;;;;314.53;168.63;;;;;;;22.00;85.25;99322.69;343178;28;1228;-77
2023/06/15 00:25:48;;;;;;;316.90;172.07;;;;;;;21.99;85.52;99326.31;340227;29;1206;-78
2023/06/15 00:25:58;;;;;;;317.93;173.50;;;;;;;21.99;85.68;99316.50;339117;29;1703;-76
2023/06/15 00:26:10;;;;;;;319.17;171.60;;;;;;;22.03;85.58;99322.44;341823;28;1364;-75
2023/06/15 00:26:20;;;;;;;318.50;168.10;;;;;;;22.03;85.49;99322.44;341507;28;1511;-75
2023/06/15 00:26:31;;;;;;;316.67;167.20;;;;;;;22.03;85.63;99323.25;341978;28;950;-75
2023/06/15 00:26:42;;;;;;;314.75;166.88;;;;;;;22.04;85.74;99314.28;342919;28;1160;-75
2023/06/15 00:26:52;;;;;;;316.38;169.73;;;;;;;22.06;85.39;99325.66;339225;29;1846;-75
2023/06/15 00:27:03;;;;;;;317.83;172.60;;;;;;;22.07;85.75;99319.34;339339;29;1312;-75
2023/06/15 00:27:13;;;;;;;322.42;176.80;;;;;;;22.10;85.62;99323.50;335617;29;1593;-75
2023/06/15 00:27:24;;;;;;;320.13;176.47;;;;;;;22.09;85.34;99322.69;332470;29;3898;-75
2023/06/15 00:27:35;;;;;;;317.80;174.57;;;;;;;22.05;85.65;99318.63;333784;29;3517;-75
2023/06/15 00:27:45;;;;;;;314.92;173.35;;;;;;;22.06;85.51;99314.16;332530;29;1370;-75
2023/06/15 00:27:55;;;;;;;316.73;173.83;;;;;;;22.06;85.80;99317.66;332813;29;1398;-75
2023/06/15 00:28:06;;;;;;;317.45;174.35;;;;;;;22.07;85.56;99319.34;331699;29;1171;-75
2023/06/15 00:28:16;;;;;;;318.03;172.63;;;;;;;22.08;85.47;99329.00;332877;29;1248;-75
2023/06/15 00:28:27;;;;;;;316.27;171.80;;;;;;;22.09;85.39;99322.69;330325;29;1309;-75
2023/06/15 00:28:37;;;;;;;317.17;170.93;;;;;;;22.11;85.64;99320.69;330388;29;1327;-75
2023/06/15 00:28:47;;;;;;;316.63;170.57;;;;;;;22.10;85.59;99313.69;331560;29;1008;-75
2023/06/15 00:28:58;;;;;;;320.20;172.82;;;;;;;22.13;85.81;99325.88;335465;29;1388;-75
2023/06/15 00:29:08;;;;;;;319.70;173.03;;;;;;;22.13;85.66;99316.06;332783;29;1452;-75
2023/06/15 00:29:18;;;;;;;319.33;172.77;;;;;;;22.15;85.26;99319.44;331602;29;1187;-75
2023/06/15 00:29:29;;;;;;;321.85;173.77;;;;;;;22.16;85.70;99318.44;331960;29;1563;-75
2023/06/15 00:29:39;;;;;;;320.63;174.73;;;;;;;22.18;85.23;99323.63;332259;29;1697;-74
2023/06/15 00:29:50;;;;;;;319.08;176.07;;;;;;;22.19;85.48;99326.16;333029;29;1176;-74
2023/06/15 00:30:01;;;;;;;317.57;175.10;;;;;;;22.19;85.07;99317.31;332897;29;952;-74
2023/06/15 00:30:11;;;;;;;318.25;173.98;;;;;;;22.19;85.39;99320.84;330372;29;1050;-75
2023/06/15 00:30:22;;;;;;;318.75;173.80;;;;;;;22.18;85.01;99319.16;330337;29;1226;-75
2023/06/15 00:30:32;;;;;;;316.30;172.97;;;;;;;22.19;85.29;99328.81;329141;30;1590;-75
2023/06/15 00:30:43;;;;;;;317.15;174.57;;;;;;;22.19;85.37;99323.50;330432;29;1474;-75
2023/06/15 00:30:53;;;;;;;318.17;175.00;;;;;;;22.18;85.08;99319.16;329110;29;1914;-75
2023/06/15 00:31:03;;;;;;;318.40;176.13;;;;;;;22.20;85.16;99329.66;327793;30;1744;-75
2023/06/15 00:31:14;;;;;;;319.38;179.30;;;;;;;22.19;85.30;99322.66;328815;29;1912;-75
2023/06/15 00:31:24;;;;;;;323.53;178.70;;;;;;;22.21;85.21;99320.69;327157;29;2214;-75
2023/06/15 00:31:35;;;;;;;322.92;178.88;;;;;;;22.20;85.05;99319.84;325468;30;1227;-75
2023/06/15 00:31:45;;;;;;;323.97;178.20;;;;;;;22.21;85.21;99323.34;326474;30;2187;-75
2023/06/15 00:31:56;;;;;;;317.60;177.85;;;;;;;22.22;84.92;99323.22;326927;29;1739;-75
2023/06/15 00:32:07;;;;;;;316.70;179.67;;;;;;;22.22;85.14;99331.22;333041;29;910;-76
2023/06/15 00:32:17;;;;;;;313.88;176.70;;;;;;;22.22;84.84;99320.53;326795;30;883;-76
2023/06/15 00:32:27;;;;;;;315.43;177.33;;;;;;;22.23;85.02;99327.56;327132;30;1605;-76
2023/06/15 00:32:38;;;;;;;316.80;176.90;;;;;;;22.22;84.69;99323.22;324337;30;1786;-75
2023/06/15 00:32:48;;;;;;;318.53;179.13;;;;;;;22.23;84.86;99324.91;324204;30;800;-75
2023/06/15 00:32:59;;;;;;;316.45;176.55;;;;;;;22.26;85.10;99328.25;326390;30;2265;-75
2023/06/15 00:33:09;;;;;;;315.47;174.33;;;;;;;22.25;84.97;99324.75;327030;30;2491;-75
2023/06/15 00:33:20;;;;;;;315.85;171.43;;;;;;;22.27;84.74;99329.94;329188;30;772;-75
2023/06/15 00:33:30;;;;;;;317.73;173.97;;;;;;;22.27;84.79;99329.94;329726;29;2460;-75
2023/06/15 00:33:40;;;;;;;316.73;174.40;;;;;;;22.26;84.89;99326.44;330329;29;2711;-75
2023/06/15 00:33:52;;;;;;;318.50;178.67;;;;;;;22.24;84.74;99318.56;330484;29;1281;-75
2023/06/15 00:34:02;;;;;;;319.75;179.13;;;;;;;22.24;84.95;99326.56;327455;30;1415;-75
2023/06/15 00:34:12;;;;;;;318.45;178.75;;;;;;;22.23;85.04;99330.22;327324;30;1811;-75
2023/06/15 00:34:23;;;;;;;317.07;175.47;;;;;;;22.23;84.77;99322.22;327917;29;1283;-75
2023/06/15 00:34:33;;;;;;;317.53;175.47;;;;;;;22.23;85.10;99330.22;330542;29;1445;-75
2023/06/15 00:34:43;;;;;;;318.13;175.88;;;;;;;22.22;85.54;99328.53;332106;29;1798;-75
2023/06/15 00:34:54;;;;;;;316.90;174.53;;;;;;;22.22;84.79;99328.53;332066;29;2442;-75
2023/06/15 00:35:04;;;;;;;316.08;173.90;;;;;;;22.18;84.79;99329.81;334178;29;1184;-75
2023/06/15 00:35:15;;;;;;;317.53;174.87;;;;;;;22.15;85.05;99332.75;331003;29;2656;-75
2023/06/15 00:35:25;;;;;;;319.48;178.80;;;;;;;22.14;84.67;99327.56;331796;29;3313;-75
2023/06/15 00:35:36;;;;;;;323.10;182.13;;;;;;;22.14;85.25;99330.25;331304;29;1270;-75
2023/06/15 00:35:46;;;;;;;323.63;180.43;;;;;;;22.14;85.48;99330.25;328716;29;3337;-75
2023/06/15 00:35:58;;;;;;;323.47;177.83;;;;;;;22.13;85.10;99336.56;328239;29;3389;-75
2023/06/15 00:36:12;;;;;;;322.58;179.98;;;;;;;22.13;85.13;99339.22;326490;30;3374;-75
2023/06/15 00:36:22;;;;;;;320.50;179.40;;;;;;;22.11;85.36;99334.03;323250;30;2633;-75
2023/06/15 00:36:32;;;;;;;317.60;176.65;;;;;;;22.11;85.64;99326.03;328015;30;896;-75
2023/06/15 00:36:43;;;;;;;315.20;173.13;;;;;;;22.12;85.69;99327.72;324704;30;2099;-75
2023/06/15 00:36:53;;;;;;;316.70;174.07;;;;;;;22.14;85.37;99330.25;317165;30;2744;-75
2023/06/15 00:37:04;;;;;;;320.17;176.03;;;;;;;22.13;85.52;99331.22;316226;31;887;-75
2023/06/15 00:37:14;;;;;;;320.80;176.90;;;;;;;22.13;85.33;99328.56;322803;30;3569;-75
2023/06/15 00:37:25;;;;;;;319.57;178.70;;;;;;;22.14;85.16;99327.56;322394;30;4007;-75
2023/06/15 00:37:35;;;;;;;316.42;178.18;;;;;;;22.13;85.43;99332.06;323248;30;880;-75
2023/06/15 00:37:45;;;;;;;317.37;178.53;;;;;;;22.15;85.30;99331.91;321903;30;4587;-75
2023/06/15 00:37:56;;;;;;;316.67;177.03;;;;;;;22.14;85.35;99328.41;316516;30;4420;-75
2023/06/15 00:38:06;;;;;;;316.70;173.13;;;;;;;22.16;85.33;99333.59;313792;31;1431;-75
2023/06/15 00:38:17;;;;;;;319.13;176.93;;;;;;;22.16;85.53;99333.59;317388;31;928;-75
2023/06/15 00:38:27;;;;;;;320.02;177.25;;;;;;;22.16;85.63;99334.44;312819;31;4561;-75
2023/06/15 00:38:38;;;;;;;319.27;180.93;;;;;;;22.15;85.53;99332.75;311182;31;3400;-75
2023/06/15 00:38:49;;;;;;;317.55;176.57;;;;;;;22.16;85.45;99331.78;312614;31;1582;-75
2023/06/15 00:39:00;;;;;;;316.65;178.32;;;;;;;22.17;85.43;99328.13;313876;31;3652;-75
2023/06/15 00:39:10;;;;;;;317.80;180.48;;;;;;;22.19;84.96;99327.97;311758;31;4034;-75
2023/06/15 00:39:21;;;;;;;318.33;181.17;;;;;;;22.17;84.93;99330.78;309549;31;1218;-75
2023/06/15 00:39:31;;;;;;;321.63;182.60;;;;;;;22.18;85.01;99336.97;311888;31;5143;-75
2023/06/15 00:39:41;;;;;;;326.70;181.77;;;;;;;22.18;85.06;99332.47;309424;31;6002;-75
2023/06/15 00:39:52;;;;;;;325.67;180.37;;;;;;;22.17;85.05;99329.94;307468;31;6107;-76
2023/06/15 00:40:05;;;;;;;323.00;178.70;;;;;;;22.17;85.03;99335.28;309482;31;866;-75
2023/06/15 00:40:16;;;;;;;317.67;174.57;;;;;;;22.16;85.18;99331.78;311574;31;6167;-75
2023/06/15 00:40:26;;;;;;;316.17;173.97;;;;;;;22.16;85.37;99329.09;310233;31;6113;-75
2023/06/15 00:40:38;;;;;;;316.48;174.45;;;;;;;22.15;84.97;99327.44;308617;31;6474;-75
2023/06/15 00:40:49;;;;;;;319.92;176.73;;;;;;;22.16;85.17;99326.44;308350;32;863;-75
2023/06/15 00:40:59;;;;;;;322.10;179.05;;;;;;;22.14;85.35;99323.09;306560;32;4581;-75
2023/06/15 00:41:09;;;;;;;322.30;180.37;;;;;;;22.15;85.35;99332.75;304205;32;5137;-75
2023/06/15 00:41:21;;;;;;;320.00;181.25;;;;;;;22.15;85.14;99326.59;304163;32;1471;-75
2023/06/15 00:41:40;;;;;;;318.92;178.95;;;;;;;22.14;85.02;99328.41;308198;31;6254;-75
2023/06/15 00:41:50;;;;;;;317.90;179.95;;;;;;;22.14;85.15;99328.41;305943;31;1548;-75
2023/06/15 00:42:00;;;;;;;323.20;188.97;;;;;;;22.15;85.24;99331.91;302718;32;8302;-75
2023/06/15 00:42:11;;;;;;;321.98;186.20;;;;;;;22.12;85.63;99335.72;301771;32;8187;-75
2023/06/15 00:42:21;;;;;;;322.30;182.30;;;;;;;22.13;85.50;99323.22;299992;32;850;-75
2023/06/15 00:42:32;;;;;;;315.00;172.00;;;;;;;22.12;85.66;99327.72;299448;32;8922;-75
2023/06/15 00:42:44;;;;;;;315.80;174.13;;;;;;;22.12;85.38;99335.72;295008;33;8182;-75
2023/06/15 00:42:55;;;;;;;312.88;176.25;;;;;;;22.12;85.46;99325.03;295234;33;8475;-75
2023/06/15 00:43:05;;;;;;;314.13;177.63;;;;;;;22.12;85.42;99327.72;295913;33;772;-75
2023/06/15 00:43:18;;;;;;;314.15;175.95;;;;;;;22.14;85.79;99331.06;292598;33;7051;-75
2023/06/15 00:43:29;;;;;;;316.83;173.90;;;;;;;22.15;85.56;99327.44;292651;33;8583;-75
2023/06/15 00:43:41;;;;;;;317.07;175.37;;;;;;;22.15;85.48;99330.09;292635;33;8365;-75
2023/06/15 00:46:15;;;;;;;310.99;163.04;;;;;;;22.05;85.75;99326.63;2491010;27;20849;-75
2023/06/15 00:46:26;;;;;;;321.85;178.82;;;;;;;22.02;86.27;99326.91;354222;27;922;-75
2023/06/15 00:46:36;;;;;;;323.73;179.40;;;;;;;21.90;86.00;99328.84;353039;28;745;-75
2023/06/15 00:46:47;;;;;;;324.17;180.38;;;;;;;21.89;86.41;99326.31;350189;28;816;-76
2023/06/15 00:46:58;;;;;;;322.10;175.03;;;;;;;21.89;86.27;99329.00;347126;28;1562;-75
2023/06/15 00:47:08;;;;;;;320.95;176.02;;;;;;;21.91;86.04;99327.03;347351;28;979;-75
2023/06/15 00:47:19;;;;;;;320.97;176.33;;;;;;;21.91;86.44;99330.53;348740;28;1171;-75
2023/06/15 00:47:29;;;;;;;322.80;174.10;;;;;;;21.93;86.58;99327.72;348909;28;852;-75
2023/06/15 00:47:42;;;;;;;322.10;174.02;;;;;;;21.94;86.23;99334.75;348581;28;944;-75
2023/06/15 00:47:53;;;;;;;317.15;175.90;;;;;;;21.96;86.10;99326.59;347419;28;973;-75
2023/06/15 00:48:03;;;;;;;318.03;177.07;;;;;;;21.97;86.16;99329.13;348717;28;1285;-75
2023/06/15 00:48:14;;;;;;;314.52;172.35;;;;;;;21.95;86.50;99333.75;348718;28;979;-75
2023/06/15 00:48:24;;;;;;;312.83;170.33;;;;;;;21.97;86.40;99325.63;351467;28;1294;-75
2023/06/15 00:48:36;;;;;;;312.87;168.30;;;;;;;21.97;86.02;99322.97;351577;28;1653;-75
2023/06/15 00:48:46;;;;;;;312.92;168.63;;;;;;;21.98;85.87;99328.16;348586;28;1584;-75
2023/06/15 00:48:57;;;;;;;312.27;169.17;;;;;;;21.99;85.88;99331.66;348629;28;868;-75
2023/06/15 00:49:07;;;;;;;309.73;168.27;;;;;;;21.99;85.92;99324.50;346106;28;869;-75
2023/06/15 00:49:20;;;;;;;311.47;170.20;;;;;;;22.00;86.31;99323.53;348701;28;1226;-75
2023/06/15 00:49:31;;;;;;;313.90;171.75;;;;;;;21.98;86.14;99330.81;350193;28;864;-75
2023/06/15 00:49:42;;;;;;;317.10;171.93;;;;;;;21.97;86.00;99329.13;348625;28;1433;-75
2023/06/15 00:49:52;;;;;;;316.50;170.00;;;;;;;21.98;86.18;99322.81;348613;28;1259;-76
2023/06/15 00:50:03;;;;;;;312.67;167.70;;;;;;;21.99;85.99;99327.16;344691;28;992;-75
2023/06/15 00:50:14;;;;;;;311.13;168.13;;;;;;;22.00;86.23;99328.84;347072;28;1257;-75
2023/06/15 00:50:25;;;;;;;311.85;170.45;;;;;;;22.02;85.87;99331.41;345135;28;1416;-75
2023/06/15 00:50:37;;;;;;;315.15;173.05;;;;;;;22.02;86.13;99336.72;344145;28;1272;-75
2023/06/15 00:50:48;;;;;;;317.00;171.95;;;;;;;22.03;85.86;99331.25;341848;28;896;-75
2023/06/15 00:50:58;;;;;;;316.58;167.43;;;;;;;22.02;86.13;99324.25;340626;29;1374;-75
2023/06/15 00:51:09;;;;;;;317.07;168.10;;;;;;;22.02;85.63;99328.75;342737;28;1212;-75
2023/06/15 00:51:20;;;;;;;315.35;169.05;;;;;;;22.00;85.95;99333.34;343364;28;880;-75
2023/06/15 00:51:31;;;;;;;314.30;171.50;;;;;;;21.98;86.32;99333.47;343357;28;1363;-75
2023/06/15 00:51:42;;;;;;;313.88;171.75;;;;;;;21.98;86.08;99330.81;340831;28;1090;-75
2023/06/15 00:51:53;;;;;;;314.60;172.10;;;;;;;21.98;86.16;99330.81;344292;28;1549;-75
2023/06/15 00:52:04;;;;;;;315.88;172.10;;;;;;;21.97;86.06;99329.13;345507;28;1258;-75
2023/06/15 00:52:15;;;;;;;315.63;173.25;;;;;;;21.98;86.29;99333.47;341745;28;1513;-75
2023/06/15 00:52:25;;;;;;;317.33;174.23;;;;;;;21.98;86.37;99330.81;337934;29;974;-75
2023/06/15 00:52:36;;;;;;;317.37;174.10;;;;;;;21.99;86.45;99329.00;338699;28;1297;-75
2023/06/15 00:52:48;;;;;;;316.85;172.23;;;;;;;22.00;86.00;99328.84;343194;28;868;-75
2023/06/15 00:53:00;;;;;;;313.33;168.40;;;;;;;22.01;86.39;99335.03;342034;28;1472;-75
2023/06/15 00:53:11;;;;;;;311.42;167.13;;;;;;;22.00;86.10;99334.19;340250;29;948;-75
2023/06/15 00:53:21;;;;;;;311.25;167.35;;;;;;;22.01;85.98;99332.34;340705;28;1197;-76
2023/06/15 00:53:32;;;;;;;311.93;168.97;;;;;;;22.00;86.12;99333.34;341080;28;1387;-76
2023/06/15 00:53:42;;;;;;;313.50;169.82;;;;;;;22.00;85.84;99328.84;341682;28;899;-76
2023/06/15 00:53:53;;;;;;;314.67;171.97;;;;;;;22.01;86.33;99329.69;343780;28;1596;-76
2023/06/15 00:54:03;;;;;;;316.08;171.88;;;;;;;22.01;86.23;99329.69;342107;28;794;-76